createdAt,value
2023-02-15T00:02:33.656Z,2.77
2023-02-15T00:08:05.386Z,2.62
2023-02-15T00:13:38.608Z,2.57
2023-02-15T00:19:08.868Z,2.4
2023-02-15T00:24:44.994Z,2.42
2023-02-15T00:30:16.842Z,2.43
2023-02-15T00:35:48.418Z,2.42
2023-02-15T00:41:20.162Z,2.57
2023-02-15T00:46:51.845Z,2.56
2023-02-15T00:52:23.584Z,2.53
2023-02-15T00:57:55.762Z,2.45
2023-02-15T01:03:27.270Z,2.5
2023-02-15T01:08:58.946Z,2.47
2023-02-15T01:14:30.593Z,2.26
2023-02-15T01:20:02.777Z,2.24
2023-02-15T01:25:41.165Z,2.3
2023-02-15T01:31:12.159Z,2.28
2023-02-15T01:36:43.800Z,2.19
2023-02-15T01:42:15.504Z,2.2
2023-02-15T01:47:47.361Z,2.12
2023-02-15T01:53:19.026Z,2.14
2023-02-15T01:58:50.955Z,2.11
2023-02-15T02:04:22.503Z,2.08
2023-02-15T02:09:54.454Z,1.99
2023-02-15T02:15:26.084Z,1.75
2023-02-15T02:20:57.776Z,1.43
2023-02-15T02:26:33.825Z,1.33
2023-02-15T02:32:05.791Z,1.27
2023-02-15T02:37:37.305Z,1.17
2023-02-15T02:43:09.163Z,1.03
2023-02-15T02:48:40.887Z,1.05
2023-02-15T02:54:12.430Z,0.82
2023-02-15T02:59:44.142Z,0.92
2023-02-15T03:05:16.042Z,0.97
2023-02-15T03:10:47.752Z,0.63
2023-02-15T03:16:19.931Z,0.53
2023-02-15T03:21:51.232Z,0.72
2023-02-15T03:27:29.363Z,0.81
2023-02-15T03:33:01.629Z,0.46
2023-02-15T03:38:32.834Z,0.52
2023-02-15T03:44:05.236Z,0.86
2023-02-15T03:49:36.105Z,0.77
2023-02-15T03:55:07.970Z,0.76
2023-02-15T04:00:39.485Z,0.92
2023-02-15T04:06:11.425Z,0.92
2023-02-15T04:11:43.223Z,0.99
2023-02-15T04:17:14.945Z,0.99
2023-02-15T04:22:46.398Z,0.94
2023-02-15T04:28:23.289Z,0.86
2023-02-15T04:33:54.690Z,0.37
2023-02-15T04:39:26.027Z,0.81
2023-02-15T04:44:57.760Z,0.76
2023-02-15T04:50:29.526Z,1.02
2023-02-15T04:56:01.978Z,0.98
2023-02-15T05:01:33.596Z,0.96
2023-02-15T05:07:04.973Z,0.71
2023-02-15T05:12:36.352Z,0.7
2023-02-15T05:18:08.617Z,0.76
2023-02-15T05:23:39.946Z,0.8
2023-02-15T05:29:15.963Z,0.74
2023-02-15T05:34:47.655Z,0.68
2023-02-15T05:40:19.533Z,0.66
2023-02-15T05:45:51.380Z,0.75
2023-02-15T05:51:23.082Z,0.69
2023-02-15T05:56:54.839Z,0.77
2023-02-15T06:02:26.329Z,0.76
2023-02-15T06:07:58.027Z,0.73
2023-02-15T06:13:30.000Z,0.75
2023-02-15T06:19:01.784Z,0.73
2023-02-15T06:24:33.248Z,0.76
2023-02-15T06:30:11.658Z,0.81
2023-02-15T06:35:43.287Z,0.93
2023-02-15T06:41:15.051Z,0.81
2023-02-15T06:46:46.710Z,0.81
2023-02-15T06:52:18.535Z,0.81
2023-02-15T06:57:51.091Z,0.87
2023-02-15T07:03:21.989Z,0.88
2023-02-15T07:08:53.474Z,0.82
2023-02-15T07:14:25.559Z,0.78
2023-02-15T07:19:57.206Z,0.83
2023-02-15T07:25:28.884Z,0.98
2023-02-15T07:31:05.126Z,0.99
2023-02-15T07:36:37.304Z,0.89
2023-02-15T07:42:08.915Z,0.94
2023-02-15T07:47:40.342Z,0.78
2023-02-15T07:53:11.727Z,1.05
2023-02-15T07:58:43.454Z,1.05
2023-02-15T08:04:15.275Z,1.02
2023-02-15T08:09:47.254Z,0.88
2023-02-15T08:15:18.850Z,0.27
2023-02-15T08:20:50.331Z,0.23
2023-02-15T08:26:22.282Z,0.18
2023-02-15T08:32:00.351Z,0.65
2023-02-15T08:37:31.973Z,0.8
2023-02-15T08:43:04.217Z,0.76
2023-02-15T08:48:35.547Z,0.84
2023-02-15T08:54:07.232Z,0.67
2023-02-15T08:59:39.545Z,0.08
2023-02-15T09:05:10.565Z,0.58
2023-02-15T09:10:42.271Z,1.26
2023-02-15T09:16:14.286Z,1.26
2023-02-15T09:21:45.811Z,1.55
2023-02-15T09:27:17.545Z,1.31
2023-02-15T09:32:53.706Z,1.77
2023-02-15T09:38:25.394Z,1.7
2023-02-15T09:43:57.122Z,1.3
2023-02-15T09:49:29.120Z,2.09
2023-02-15T09:55:00.965Z,2.26
2023-02-15T10:00:32.274Z,2.25
2023-02-15T10:06:04.302Z,2.17
2023-02-15T10:11:35.761Z,2.84
2023-02-15T10:17:07.478Z,2.85
2023-02-15T10:22:39.701Z,3.13
2023-02-15T10:28:11.170Z,3.24
2023-02-15T10:33:47.322Z,4.32
2023-02-15T10:39:19.090Z,4.71
2023-02-15T10:44:50.510Z,5.1
2023-02-15T10:50:22.576Z,5.19
2023-02-15T10:55:53.985Z,5.38
2023-02-15T11:01:26.082Z,5.88
2023-02-15T11:06:57.682Z,6.14
2023-02-15T11:12:29.114Z,5.64
2023-02-15T11:18:00.852Z,5.89
2023-02-15T11:23:32.969Z,5.93
2023-02-15T11:29:04.318Z,6.27
2023-02-15T11:34:42.532Z,6.74
2023-02-15T11:40:14.244Z,7.12
2023-02-15T11:45:46.195Z,7.56
2023-02-15T11:51:17.762Z,7.15
2023-02-15T11:56:49.734Z,7.16
2023-02-15T12:02:21.355Z,6.93
2023-02-15T12:07:53.050Z,7.8
2023-02-15T12:13:24.701Z,7.89
2023-02-15T12:18:56.605Z,8.77
2023-02-15T12:24:28.188Z,8.6
2023-02-15T12:30:00.211Z,9.03
2023-02-15T12:35:36.802Z,9.06
2023-02-15T12:41:08.030Z,9.13
2023-02-15T12:46:39.780Z,9.36
2023-02-15T12:52:11.245Z,9.29
2023-02-15T12:57:43.140Z,9.54
2023-02-15T13:03:15.052Z,9.29
2023-02-15T13:08:46.674Z,9.31
2023-02-15T13:14:18.076Z,8.88
2023-02-15T13:19:50.180Z,8.97
2023-02-15T13:25:21.551Z,9.36
2023-02-15T13:30:53.536Z,9.52
2023-02-15T13:36:29.792Z,9.35
2023-02-15T13:42:01.316Z,9.46
2023-02-15T13:47:33.225Z,9.65
2023-02-15T13:53:04.861Z,9.7
2023-02-15T13:58:36.672Z,9.88
2023-02-15T14:04:08.081Z,9.69
2023-02-15T14:09:40.657Z,9.79
2023-02-15T14:15:11.902Z,9.68
2023-02-15T14:20:43.301Z,9.81
2023-02-15T14:26:15.084Z,9.73
2023-02-15T14:31:46.871Z,9.82
2023-02-15T14:37:22.951Z,9.98
2023-02-15T14:42:54.746Z,10.0
2023-02-15T14:48:26.488Z,10.0
2023-02-15T14:53:58.093Z,10.1
2023-02-15T14:59:29.926Z,10.2
2023-02-15T15:05:01.502Z,10.31
2023-02-15T15:10:33.227Z,9.94
2023-02-15T15:16:05.177Z,10.07
2023-02-15T15:21:36.713Z,10.21
2023-02-15T15:27:08.487Z,10.11
2023-02-15T15:32:40.099Z,10.08
2023-02-15T15:38:16.323Z,9.88
2023-02-15T15:43:48.039Z,9.86
2023-02-15T15:49:19.923Z,9.72
2023-02-15T15:54:51.548Z,9.6
2023-02-15T16:00:23.191Z,9.48
2023-02-15T16:05:55.058Z,9.35
2023-02-15T16:11:26.612Z,9.14
2023-02-15T16:16:58.335Z,9.03
2023-02-15T16:22:30.558Z,8.83
2023-02-15T16:28:01.795Z,8.67
2023-02-15T16:33:33.493Z,8.44
2023-02-15T16:39:09.885Z,8.33
2023-02-15T16:44:41.638Z,8.1
2023-02-15T16:50:13.324Z,7.91
2023-02-15T16:55:44.957Z,7.78
2023-02-15T17:01:16.962Z,7.63
2023-02-15T17:06:48.559Z,7.55
2023-02-15T17:12:20.250Z,7.39
2023-02-15T17:17:51.820Z,7.2
2023-02-15T17:23:23.724Z,7.07
2023-02-15T17:28:55.346Z,6.94
2023-02-15T17:34:27.159Z,6.85
2023-02-15T17:40:03.198Z,6.79
2023-02-15T17:45:35.238Z,6.73
2023-02-15T17:51:06.589Z,6.7
2023-02-15T17:56:38.238Z,6.62
2023-02-15T18:02:09.991Z,6.53
2023-02-15T18:07:41.956Z,6.48
2023-02-15T18:13:13.493Z,6.41
2023-02-15T18:18:45.500Z,6.35
2023-02-15T18:24:17.230Z,6.3
2023-02-15T18:29:48.843Z,6.31
2023-02-15T18:35:20.753Z,6.32
2023-02-15T18:40:59.280Z,6.31
2023-02-15T18:46:30.428Z,6.31
2023-02-15T18:52:02.147Z,6.21
2023-02-15T18:57:33.855Z,6.16
2023-02-15T19:03:05.457Z,6.14
2023-02-15T19:08:37.191Z,6.0
2023-02-15T19:14:09.865Z,5.89
2023-02-15T19:19:40.633Z,5.9
2023-02-15T19:25:12.464Z,5.92
2023-02-15T19:30:44.094Z,5.9
2023-02-15T19:36:15.819Z,5.95
2023-02-15T19:41:52.167Z,5.94
2023-02-15T19:47:23.718Z,5.94
2023-02-15T19:52:55.853Z,5.86
2023-02-15T19:58:27.098Z,5.99
2023-02-15T20:03:59.078Z,5.92
2023-02-15T20:09:30.751Z,5.98
2023-02-15T20:15:02.630Z,6.15
2023-02-15T20:20:34.207Z,6.1
2023-02-15T20:26:05.746Z,6.05
2023-02-15T20:31:37.584Z,6.09
2023-02-15T20:37:09.465Z,6.06
2023-02-15T20:42:45.566Z,6.06
2023-02-15T20:48:17.078Z,6.05
2023-02-15T20:53:48.969Z,5.96
2023-02-15T20:59:20.623Z,5.93
2023-02-15T21:04:52.595Z,5.94
2023-02-15T21:10:24.150Z,5.84
2023-02-15T21:15:55.695Z,5.56
2023-02-15T21:21:27.419Z,5.31
2023-02-15T21:26:59.495Z,5.24
2023-02-15T21:32:31.559Z,5.21
2023-02-15T21:38:03.301Z,5.27
2023-02-15T21:43:38.790Z,5.19
2023-02-15T21:49:10.521Z,5.12
2023-02-15T21:54:42.496Z,5.05
2023-02-15T22:00:14.381Z,4.96
2023-02-15T22:05:45.703Z,4.87
2023-02-15T22:11:17.511Z,4.78
2023-02-15T22:16:49.946Z,4.79
2023-02-15T22:22:21.084Z,4.88
2023-02-15T22:27:52.584Z,4.89
2023-02-15T22:33:24.315Z,4.83
2023-02-15T22:38:56.012Z,4.86
2023-02-15T22:44:34.215Z,4.75
2023-02-15T22:50:05.954Z,4.64
2023-02-15T22:55:37.681Z,4.63
2023-02-15T23:01:10.467Z,4.53
2023-02-15T23:06:41.502Z,4.48
2023-02-15T23:12:12.792Z,4.15
2023-02-15T23:17:44.533Z,4.23
2023-02-15T23:23:16.230Z,4.15
2023-02-15T23:28:48.021Z,4.1
2023-02-15T23:34:19.821Z,4.04
2023-02-15T23:39:51.974Z,4.0
2023-02-15T23:45:29.569Z,3.87
2023-02-15T23:51:01.462Z,3.68
2023-02-15T23:56:33.003Z,3.64
